• Join FlightAware (Why Join?)
  • Login
  • US Flag 
08:46AM EDT


 

Airport Tracker/Info


-or-


 

Live Flight TrackerFlight Track Log ✈ AWE3254 ✈ 19-Apr-2013 ✈ KJAX - KDCA

Flight Track Log - Related Links

Times and Time Zones

All times are in EDT time to prevent confusion due to time zone crossing. See the AWE3254 flight status page for this flight to view local times or setup timezone preferences in your user account.

Time Position Orientation Groundspeed Altitude Reporting Facility
EDT Latitude Longitude Course Direction KTS MPH feet Rate Location/Type
07:24AM 30.4950 -81.7114 19° North 153 176 800  Level Jacksonville Center
07:24AM 30.5075 -81.7208 327° Northwest 153 176 1,200 1,080 Climbing Jacksonville Center
07:25AM 30.5617 -81.7200 North 186 214 2,200 1,440 Climbing Jacksonville Center
07:26AM 30.6411 -81.7119 North 224 258 4,100 2,400 Climbing Jacksonville Center
07:27AM 30.7796 -81.3544 46° Northeast  Level FlightAware Approximate
07:27AM 30.7225 -81.7011 North 265 305 7,000  Level Jacksonville Center
07:28AM 30.8535 -81.2820 19° North  Level FlightAware Approximate
07:28AM 30.8078 -81.6881 North 296 341 9,300  Level Jacksonville Center
07:29AM 30.9505 -81.2431 19° North  Level FlightAware Approximate
07:29AM 30.8975 -81.6603 15° North 310 357 10,900  Level Jacksonville Center
07:30AM 30.9931 -81.6275 16° North 332 382 12,900 1,980 Climbing Jacksonville Center
07:31AM 31.0908 -81.5897 18° North 346 398 14,900 1,800 Climbing Jacksonville Center
07:32AM 31.1864 -81.5544 18° North 362 417 16,600 1,860 Climbing Jacksonville Center
07:33AM 31.2864 -81.5189 17° North 367 422 18,700 2,100 Climbing Jacksonville Center
07:34AM 31.3861 -81.4811 18° North 367 422 20,800 1,800 Climbing Jacksonville Center
07:35AM 31.4797 -81.4456 18° North 377 434 22,300 1,620 Climbing Jacksonville Center
07:36AM 31.5961 -81.4047 17° North 388 447 24,100 1,560 Climbing Jacksonville Center
07:37AM 31.6853 -81.3472 29° Northeast 399 459 25,500 1,380 Climbing Jacksonville Center
07:38AM 31.7928 -81.2622 34° Northeast 413 475 26,900 1,260 Climbing Jacksonville Center
07:39AM 31.8900 -81.1847 34° Northeast 419 482 28,100 1,200 Climbing Jacksonville Center
07:40AM 31.9911 -81.1094 32° Northeast 424 488 29,400 1,200 Climbing Jacksonville Center
07:41AM 32.0922 -81.0289 34° Northeast 436 502 30,600 780 Climbing Jacksonville Center
07:42AM 32.1831 -80.9583 33° Northeast 433 498 31,000 180 Climbing Jacksonville Center
07:43AM 32.2964 -80.8700 33° Northeast 433 498 31,000  Level Jacksonville Center
07:44AM 32.3975 -80.7864 35° Northeast 438 504 31,000  Level Jacksonville Center
07:45AM 32.5006 -80.7053 34° Northeast 440 506 31,000  Level Jacksonville Center
07:46AM 32.6014 -80.6239 34° Northeast 440 506 31,000  Level Jacksonville Center
07:47AM 32.7022 -80.5425 34° Northeast 435 501 31,000  Level Jacksonville Center
07:48AM 32.8050 -80.4631 33° Northeast 435 501 31,000  Level Jacksonville Center
07:49AM 32.9056 -80.3811 34° Northeast 435 501 31,000  Level Jacksonville Center
07:50AM 33.0000 -80.3042 34° Northeast 454 522 31,000  Level Jacksonville Center
07:51AM 33.0986 -80.2244 34° Northeast 446 513 31,000  Level Jacksonville Center
07:52AM 33.1972 -80.1447 34° Northeast 434 499 31,000  Level Jacksonville Center
07:53AM 33.3017 -80.0619 34° Northeast 439 505 31,000  Level Jacksonville Center
07:54AM 33.4022 -79.9792 34° Northeast 434 499 31,000  Level Jacksonville Center
07:55AM 33.5025 -79.8961 35° Northeast 434 499 31,000  Level Jacksonville Center
07:56AM 33.6028 -79.8131 35° Northeast 434 499 31,000  Level Jacksonville Center
07:57AM 33.7031 -79.7319 34° Northeast 434 499 31,000  Level Jacksonville Center
07:58AM 33.8031 -79.6486 35° Northeast 434 499 31,000  Level Jacksonville Center
07:59AM 33.9031 -79.5647 35° Northeast 434 499 31,000  Level Jacksonville Center
08:01AM 34.0728 -79.4275 34° Northeast 433 498 31,000  Level Washington Center
08:02AM 34.1733 -79.3444 34° Northeast 439 505 31,000  Level Washington Center
08:03AM 34.2764 -79.2586 35° Northeast 444 511 31,000  Level Washington Center
08:04AM 34.3889 -79.1933 26° Northeast 444 511 31,000  Level Washington Center
08:05AM 34.4972 -79.1300 26° Northeast 433 498 31,000  Level Washington Center
08:06AM 34.6117 -79.0667 24° Northeast 433 498 31,000  Level Washington Center
08:07AM 34.7200 -79.0031 26° Northeast 428 493 31,000  Level Washington Center
08:08AM 34.8303 -78.9369 26° Northeast 428 493 31,000  Level Washington Center
08:09AM 34.9425 -78.8731 25° Northeast 428 493 31,000  Level Washington Center
08:10AM 35.0550 -78.8067 26° Northeast 428 493 31,000  Level Washington Center
08:11AM 35.1631 -78.7450 25° Northeast 428 493 31,000  Level Washington Center
08:12AM 35.2733 -78.6806 26° Northeast 428 493 31,000  Level Washington Center
08:13AM 35.3878 -78.6111 26° Northeast 440 506 31,000  Level Washington Center
08:14AM 35.4872 -78.5511 26° Northeast 440 506 31,000 -240 Level Washington Center
08:15AM 35.5847 -78.4908 27° Northeast 440 506 30,600 -720 Descending Washington Center
08:16AM 35.7117 -78.4186 25° Northeast 445 512 29,600 -1,020 Descending Washington Center
08:17AM 35.8239 -78.3508 26° Northeast 445 512 28,600 -1,020 Descending Washington Center
08:18AM 35.9381 -78.2858 25° Northeast 445 512 27,600 -840 Descending Washington Center
08:19AM 36.0522 -78.2150 27° Northeast 445 512 27,000 -300 Descending Washington Center
08:20AM 36.1664 -78.1469 26° Northeast 445 512 27,000  Level Washington Center
08:21AM 36.2806 -78.0758 27° Northeast 452 520 27,000  Level Washington Center
08:22AM 36.3947 -78.0072 26° Northeast 452 520 27,000  Level Washington Center
08:23AM 36.5192 -77.9308 26° Northeast 452 520 27,000 -180 Level Washington Center
08:24AM 36.6353 -77.8619 25° Northeast 452 520 26,700 -660 Descending Washington Center
08:25AM 36.7472 -77.7900 27° Northeast 452 520 25,700 -1,020 Descending Washington Center
08:26AM 36.8592 -77.7206 26° Northeast 452 520 24,700 -1,020 Descending Washington Center
08:27AM 36.9708 -77.6533 26° Northeast 452 520 23,700 -1,020 Descending Washington Center
08:28AM 37.0806 -77.5833 27° Northeast 452 520 22,700 -900 Descending Washington Center
08:29AM 37.1922 -77.5133 27° Northeast 447 514 22,000 -360 Descending Washington Center
08:30AM 37.3036 -77.4508 24° Northeast 441 507 22,000  Level Washington Center
08:31AM 37.4211 -77.4169 13° North 435 501 22,000 -420 Level Washington Center
08:32AM 37.5406 -77.3833 13° North 429 494 21,200 -1,200 Descending Washington Center
08:33AM 37.6558 -77.3467 14° North 429 494 19,700 -1,500 Descending Washington Center
08:34AM 37.7689 -77.3150 12° North 423 487 18,200 -1,500 Descending Washington Center
08:35AM 37.8819 -77.2808 13° North 412 474 16,700 -1,500 Descending Washington Center
08:36AM 37.9908 -77.2464 14° North 407 468 15,200 -1,500 Descending Washington Center
08:37AM 38.0892 -77.2194 12° North 407 468 13,700 -1,800 Descending Washington Center
08:38AM 38.1981 -77.1875 13° North 402 463 11,700 -1,860 Descending Washington Center
08:39AM 38.3028 -77.1581 12° North 391 450 10,000 -900 Descending Washington Center
08:40AM 38.4072 -77.1364 North 386 444 10,000  Level Washington Center
08:41AM 38.5119 -77.1119 10° North 386 444 10,000  Level Washington Center
08:42AM 38.6333 -77.0833 10° North 372 428 10,000 -660 Level Potomac TRACON
08:43AM 38.7167 -77.0667 North 333 383 8,800 -1,320 Descending Potomac TRACON
08:44AM 38.8000 -77.0833 351° North 309 356 7,500 -1,500 Descending Potomac TRACON
08:45AM 38.8500 -77.1500 314° West 278 320 5,800 -1,620 Descending Potomac TRACON
08:46AM 38.9167 -77.2167 322° Northwest 259 298 4,300 -1,260 Descending Potomac TRACON
08:47AM 38.9667 -77.2167 360° North 271 312 3,300 -720 Descending Potomac TRACON
08:48AM 38.9667 -77.1500 90° East 206 237 2,900 -600 Descending Potomac TRACON
08:49AM 38.9333 -77.1167 142° Southeast 173 199 2,200 -780 Descending Potomac TRACON